Historique des mesures à Cassis (13260), France
Quotidien Résumé Juillet 9, 2017 Unités:  Métrique    US   Métrique/US
« Précédent (Jour)
Suivant (Jour) »
Quotidien Hebdomadaire Mensuel Annuel Période au choix
  Maximum: Minimum: Moyenne:
Température: TemperatureC °C 24.9 °C 26.3 °C
Point de rosée: DewpointC °C 12.3 °C 17.4 °C
Humidité: Humidity % 42 % 55 %
Vitesse du vent: 0 km/h 0 km/h 2.7 km/h
Rafales: 0 km/h - -
Vent:- - SSE
Pression: PressurehPa hPa 1007.7 hPa -
Précipitations: 0.0 mm    
Historical Graphs
 
 
Mesures pour : Juillet 9, 2017
Heure Temperature Point de rosée Pression Vent Vitesse du vent Rafales Humidité Pluie (par heure) Conditions
TemperatureC °C DewpointC °C PressurehPa hPa Calm     Humidity % HourlyPrecipMM mm SoftwareType W/m2
00:11 27.1 °C 16.4 °C 1010.4 hPa Calm   5.1 km/h 52 % 0.0 mm open2300-1.11 W/m2
01:11 25.9 °C 18.1 °C 1010.4 hPa Calm     62 % 0.0 mm open2300-1.11 W/m2
02:11 24.9 °C 17.8 °C 1009.0 hPa Calm   7.6 km/h 65 % 0.0 mm open2300-1.11 W/m2
03:11 25.6 °C 15.9 °C 1008.7 hPa East 2.9 km/h 2.9 km/h 55 % 0.0 mm open2300-1.11 W/m2
04:10 25.6 °C 15.6 °C 1008.4 hPa Calm   2.9 km/h 54 % 0.0 mm open2300-1.11 W/m2
05:11 25.9 °C 13.7 °C 1008.0 hPa Calm   2.9 km/h 47 % 0.0 mm open2300-1.11 W/m2
06:11 26.2 °C 12.3 °C 1008.0 hPa SSW 2.3 km/h 6.4 km/h 42 % 0.0 mm open2300-1.11 W/m2
07:11 25.2 °C 15.5 °C 1008.7 hPa Calm   4.2 km/h 55 % 0.0 mm open2300-1.11 W/m2
08:11 25.6 °C 16.7 °C 1008.7 hPa ESE 6.4 km/h 6.4 km/h 58 % 0.0 mm open2300-1.11 W/m2
09:11 26.4 °C 16.6 °C 1009.4 hPa SE 6.4 km/h 14.5 km/h 55 % 0.0 mm open2300-1.11 W/m2
10:11 26.5 °C 16.1 °C 1008.7 hPa SE 10.9 km/h 10.9 km/h 53 % 0.0 mm open2300-1.11 W/m2
11:11 25.9 °C 16.7 °C 1009.0 hPa ENE 6.4 km/h 16.3 km/h 57 % 0.0 mm open2300-1.11 W/m2
12:11 28.5 °C 17.4 °C 1008.7 hPa SSE 14 km/h 16.9 km/h 51 % 0.0 mm open2300-1.11 W/m2
13:11 31.8 °C 19.1 °C 1008.7 hPa Calm     47 % 0.0 mm open2300-1.11 W/m2
14:11 32.4 °C 19.9 °C 1008.4 hPa Calm   7.6 km/h 48 % 0.0 mm open2300-1.11 W/m2
15:11 31.3 °C 20.3 °C 1008.4 hPa WSW 9.3 km/h 14.5 km/h 52 % 0.0 mm open2300-1.11 W/m2
16:11 30.9 °C 20.8 °C 1008.4 hPa Calm   8.9 km/h 55 % 0.0 mm open2300-1.11 W/m2
17:11 30.6 °C 21.1 °C 1008.0 hPa Calm   10.9 km/h 57 % 0.0 mm open2300-1.11 W/m2
18:10 29.8 °C 20.9 °C 1008.0 hPa SSW 11.6 km/h 11.6 km/h 59 % 0.0 mm open2300-1.11 W/m2
19:11 27.8 °C 20.6 °C 1007.7 hPa Calm   3.4 km/h 65 % 0.0 mm open2300-1.11 W/m2
20:11 26.8 °C 20.7 °C 1008.0 hPa Calm   6.9 km/h 69 % 0.0 mm open2300-1.11 W/m2
21:11 26.1 °C 20.7 °C 1008.0 hPa Calm     72 % 0.0 mm open2300-1.11 W/m2
22:11 25.5 °C 20.7 °C 1008.7 hPa Calm     75 % 0.0 mm open2300-1.11 W/m2
23:11 24.9 °C 20.4 °C 1009.0 hPa Calm     76 % 0.0 mm open2300-1.11 W/m2
Observations météo à CASSIS
WU-History script by Weather Underground - 1 mb